Time;durP1;ratioP1;P1;durP2;ratioP2;P2;SDS_P1;SDS_P2;PMS_P1;PMS_P2;Temp;Humidity;BMP_temperature;BMP_pressure;BME280_temperature;BME280_humidity;BME280_pressure;Samples;Min_cycle;Max_cycle;Signal;HPM_P1;HPM_P2
2023/04/18 00:00:35;;;;;;;37.70;35.17;;;;;;;18.10;49.48;102497.59;4998872;28;20538;-78
2023/04/18 00:03:01;;;;;;;40.33;37.42;;;;;;;18.08;49.10;102505.22;5015958;28;20045;-79
2023/04/18 00:05:26;;;;;;;38.17;35.42;;;;;;;18.05;49.20;102496.72;5015738;28;20030;-78
2023/04/18 00:07:52;;;;;;;38.30;35.60;;;;;;;18.03;48.99;102496.94;4998844;28;20092;-77
2023/04/18 00:10:17;;;;;;;37.55;34.95;;;;;;;18.02;49.10;102494.47;5015535;28;20050;-78
2023/04/18 00:12:43;;;;;;;34.95;32.58;;;;;;;17.99;48.98;102493.03;5016154;28;20034;-79
2023/04/18 00:15:09;;;;;;;35.25;32.85;;;;;;;17.96;49.25;102496.28;5015723;28;20450;-78
2023/04/18 00:17:37;;;;;;;38.50;35.60;;;;;;;17.94;49.27;102487.50;5015603;28;20124;-80
2023/04/18 00:20:03;;;;;;;36.40;33.17;;;;;;;17.92;49.01;102486.94;5015578;28;20084;-78
2023/04/18 00:22:29;;;;;;;36.08;33.17;;;;;;;17.89;49.03;102487.41;5014926;28;20033;-78
2023/04/18 00:24:54;;;;;;;35.15;32.35;;;;;;;17.88;49.03;102480.31;5016166;28;20034;-78
2023/04/18 00:27:20;;;;;;;33.92;31.60;;;;;;;17.85;49.08;102487.09;5015861;28;20432;-79
2023/04/18 00:29:47;;;;;;;37.90;35.30;;;;;;;17.83;49.18;102486.53;5015827;28;20424;-78
2023/04/18 00:32:12;;;;;;;37.00;34.33;;;;;;;17.82;49.44;102484.88;5015496;28;20378;-80
2023/04/18 00:34:39;;;;;;;36.35;33.65;;;;;;;17.80;49.11;102486.22;5014658;28;20025;-77
2023/04/18 00:37:05;;;;;;;34.58;32.17;;;;;;;17.77;49.28;102481.22;4997879;28;20119;-78
2023/04/18 00:39:30;;;;;;;38.33;35.70;;;;;;;17.76;49.34;102479.53;5015151;28;20110;-77
2023/04/18 00:41:55;;;;;;;35.85;32.88;;;;;;;17.73;49.24;102487.16;5015544;28;20502;-79
2023/04/18 00:44:21;;;;;;;35.53;33.13;;;;;;;17.70;49.28;102486.84;5015114;28;20033;-78
2023/04/18 00:46:47;;;;;;;34.80;32.33;;;;;;;17.67;49.28;102479.13;5014669;28;20030;-78
2023/04/18 00:49:12;;;;;;;31.55;29.73;;;;;;;17.66;49.24;102478.28;5015050;28;20119;-79
2023/04/18 00:51:39;;;;;;;36.95;34.05;;;;;;;17.64;49.50;102482.34;5014876;28;20040;-79
2023/04/18 00:54:06;;;;;;;35.88;32.88;;;;;;;17.61;49.14;102480.09;5014896;28;20059;-78
2023/04/18 00:56:33;;;;;;;36.55;33.53;;;;;;;17.59;49.47;102474.91;5015078;28;20049;-78
2023/04/18 00:58:59;;;;;;;35.22;32.47;;;;;;;17.57;49.66;102477.06;5014726;28;20173;-78
2023/04/18 01:01:24;;;;;;;34.63;32.22;;;;;;;17.53;49.17;102471.25;5014787;28;20117;-79
2023/04/18 01:03:50;;;;;;;35.20;32.55;;;;;;;17.52;49.39;102476.97;5015467;28;20041;-79
2023/04/18 01:06:15;;;;;;;35.05;32.47;;;;;;;17.49;49.13;102477.47;5015249;28;20028;-78
2023/04/18 01:08:43;;;;;;;36.80;34.30;;;;;;;17.48;49.32;102473.88;5014059;28;20037;-78
2023/04/18 01:11:08;;;;;;;34.22;31.92;;;;;;;17.46;49.15;102476.06;5014573;28;20077;-79
2023/04/18 01:13:34;;;;;;;35.30;32.45;;;;;;;17.43;49.45;102476.53;5014540;28;20446;-79
2023/04/18 01:15:59;;;;;;;35.53;33.25;;;;;;;17.42;49.50;102476.78;5014426;28;20034;-78
2023/04/18 01:18:25;;;;;;;34.90;32.33;;;;;;;17.39;49.20;102472.66;5014405;28;20040;-79
2023/04/18 01:20:52;;;;;;;33.42;31.02;;;;;;;17.38;49.43;102467.41;4996821;28;20121;-79
2023/04/18 01:23:18;;;;;;;32.78;30.58;;;;;;;17.36;49.18;102470.41;5014453;28;20037;-79
2023/04/18 01:25:45;;;;;;;34.63;32.13;;;;;;;17.35;49.04;102470.66;5014880;28;20034;-79
2023/04/18 01:28:13;;;;;;;34.08;31.70;;;;;;;17.33;49.17;102467.34;5014351;28;20083;-79
2023/04/18 01:30:39;;;;;;;36.25;33.35;;;;;;;17.29;49.39;102467.84;5014294;28;20426;-79
2023/04/18 01:33:05;;;;;;;33.30;31.20;;;;;;;17.27;49.13;102464.50;5014277;28;20057;-78
2023/04/18 01:35:31;;;;;;;33.03;30.77;;;;;;;17.26;49.26;102462.00;5014134;28;20377;-79
2023/04/18 01:37:57;;;;;;;36.83;34.03;;;;;;;17.22;49.15;102458.97;5014691;28;20454;-79
2023/04/18 01:40:23;;;;;;;32.50;30.27;;;;;;;17.21;49.21;102454.59;5014402;28;20085;-79
2023/04/18 01:42:49;;;;;;;33.90;31.27;;;;;;;17.20;49.36;102454.81;5014800;28;20160;-77
2023/04/18 01:45:15;;;;;;;32.20;29.90;;;;;;;17.17;49.00;102447.94;5014069;28;20117;-78
2023/04/18 01:47:40;;;;;;;35.42;32.75;;;;;;;17.15;49.14;102454.72;5013915;28;20037;-79
2023/04/18 01:50:06;;;;;;;31.55;29.40;;;;;;;17.12;49.03;102445.13;5014059;28;20525;-78
2023/04/18 01:52:31;;;;;;;31.20;29.17;;;;;;;17.10;48.82;102450.00;5012576;28;20470;-78
2023/04/18 01:54:57;;;;;;;30.30;28.30;;;;;;;17.08;49.37;102449.41;5014197;28;20057;-78
2023/04/18 01:57:22;;;;;;;30.90;28.88;;;;;;;17.06;48.98;102455.13;4996278;28;20109;-77
2023/04/18 01:59:47;;;;;;;36.97;34.20;;;;;;;17.05;49.27;102449.91;5013526;28;20410;-79
2023/04/18 02:02:13;;;;;;;30.63;28.42;;;;;;;17.03;49.26;102455.63;5013828;28;20036;-78
2023/04/18 02:04:38;;;;;;;32.38;30.05;;;;;;;17.00;48.89;102449.81;5013745;28;20041;-79
2023/04/18 02:07:04;;;;;;;32.65;30.10;;;;;;;16.98;49.18;102447.31;5013773;28;20122;-79
2023/04/18 02:09:29;;;;;;;33.72;31.13;;;;;;;16.97;49.01;102444.84;5013938;28;20054;-78
2023/04/18 02:11:58;;;;;;;31.75;29.13;;;;;;;16.95;49.01;102447.81;5013938;28;20505;-78
2023/04/18 02:14:24;;;;;;;32.13;29.92;;;;;;;16.92;49.02;102444.75;4997142;28;20072;-79
2023/04/18 02:16:49;;;;;;;33.05;30.73;;;;;;;16.89;49.43;102440.59;5013732;28;20037;-79
2023/04/18 02:19:15;;;;;;;32.03;29.75;;;;;;;16.87;49.25;102450.94;5015151;28;20034;-79
2023/04/18 02:21:40;;;;;;;31.50;29.40;;;;;;;16.84;49.24;102449.50;5018245;28;20083;-78
2023/04/18 02:24:06;;;;;;;30.45;28.33;;;;;;;16.82;48.95;102448.91;5017616;28;20034;-79
2023/04/18 02:26:31;;;;;;;31.80;29.48;;;;;;;16.80;48.93;102451.06;5017990;28;20393;-79
2023/04/18 02:28:57;;;;;;;30.38;28.42;;;;;;;16.78;49.12;102444.19;5017601;28;20037;-78
2023/04/18 02:31:22;;;;;;;30.27;28.23;;;;;;;16.74;49.38;102440.28;5017382;28;20144;-79
2023/04/18 02:33:48;;;;;;;32.28;30.05;;;;;;;16.72;49.03;102437.78;5017262;28;20544;-79
2023/04/18 02:36:14;;;;;;;32.75;30.45;;;;;;;16.70;49.36;102448.09;5017487;28;20462;-78
2023/04/18 02:38:39;;;;;;;33.47;30.98;;;;;;;16.68;49.19;102442.06;5018075;28;20038;-79
2023/04/18 02:41:04;;;;;;;31.40;29.15;;;;;;;16.66;49.26;102438.75;5017434;28;20029;-78
2023/04/18 02:43:30;;;;;;;31.90;29.60;;;;;;;16.63;49.23;102445.53;4999864;28;20455;-77
2023/04/18 02:45:56;;;;;;;31.25;29.15;;;;;;;16.63;49.22;102444.69;5017491;28;20052;-78
2023/04/18 02:48:24;;;;;;;32.38;30.02;;;;;;;16.61;49.21;102449.56;5000302;28;20034;-77
2023/04/18 02:50:50;;;;;;;32.17;29.42;;;;;;;16.58;49.03;102441.84;5017216;28;20108;-78
2023/04/18 02:53:16;;;;;;;27.88;26.27;;;;;;;16.56;48.74;102442.09;5016938;28;20451;-79
2023/04/18 02:55:41;;;;;;;32.80;30.30;;;;;;;16.53;49.22;102450.78;5017115;28;20084;-78
2023/04/18 02:58:07;;;;;;;30.80;28.60;;;;;;;16.50;49.03;102437.59;5017353;28;20108;-78
2023/04/18 03:00:33;;;;;;;30.42;28.25;;;;;;;16.50;49.15;102442.22;5017655;28;20030;-78
2023/04/18 03:02:59;;;;;;;30.92;28.83;;;;;;;16.47;48.99;102440.00;5016985;28;20041;-78
2023/04/18 03:05:25;;;;;;;30.23;28.33;;;;;;;16.44;48.84;102441.31;5017468;28;20428;-79
2023/04/18 03:07:50;;;;;;;31.95;29.75;;;;;;;16.42;49.19;102440.72;4999463;28;20034;-78
2023/04/18 03:10:15;;;;;;;31.00;28.83;;;;;;;16.40;49.43;102440.13;5017089;28;20061;-80
2023/04/18 03:12:41;;;;;;;29.73;27.75;;;;;;;16.37;48.98;102433.25;5015783;28;20033;-79
2023/04/18 03:15:06;;;;;;;30.13;28.00;;;;;;;16.35;49.05;102448.19;5016734;28;20038;-78
2023/04/18 03:17:32;;;;;;;29.80;27.90;;;;;;;16.33;48.98;102443.00;5016667;28;20038;-79
2023/04/18 03:20:00;;;;;;;30.95;28.95;;;;;;;16.31;49.34;102447.84;5016669;28;20358;-79
2023/04/18 03:22:26;;;;;;;31.08;28.80;;;;;;;16.30;49.20;102450.81;5016509;28;20030;-79
2023/04/18 03:24:51;;;;;;;30.88;28.67;;;;;;;16.27;48.74;102449.38;5016627;28;20381;-79
2023/04/18 03:27:17;;;;;;;33.13;30.55;;;;;;;16.25;49.10;102451.50;5016639;28;20109;-79
2023/04/18 03:29:42;;;;;;;30.13;27.90;;;;;;;16.22;48.88;102450.09;5016003;28;20396;-79
2023/04/18 03:32:07;;;;;;;29.38;27.30;;;;;;;16.20;48.74;102444.06;5017018;28;20431;-79
2023/04/18 03:34:33;;;;;;;29.48;27.65;;;;;;;16.19;48.95;102453.31;5016674;28;20037;-79
2023/04/18 03:36:58;;;;;;;30.90;28.70;;;;;;;16.17;49.21;102449.97;5016432;28;20026;-78
2023/04/18 03:39:23;;;;;;;26.73;24.90;;;;;;;16.13;49.32;102451.53;5016296;28;20041;-79
2023/04/18 03:41:49;;;;;;;29.73;27.73;;;;;;;16.11;49.37;102447.41;5016664;28;20124;-79
2023/04/18 03:44:15;;;;;;;28.30;26.55;;;;;;;16.09;48.93;102446.81;5016052;28;20037;-76
2023/04/18 03:46:40;;;;;;;27.35;25.67;;;;;;;16.07;49.18;102443.47;5016192;28;20113;-76
2023/04/18 03:49:06;;;;;;;29.42;27.45;;;;;;;16.06;48.68;102442.66;5016437;28;20381;-79
2023/04/18 03:51:40;;;;;;;28.92;26.95;;;;;;;16.05;48.78;102442.88;5015419;28;20037;-78
2023/04/18 03:54:08;;;;;;;30.50;27.92;;;;;;;16.02;48.89;102446.91;5014873;28;20064;-77
2023/04/18 03:56:34;;;;;;;28.70;26.75;;;;;;;16.00;49.23;102449.03;5016021;28;20033;-78
2023/04/18 03:59:00;;;;;;;28.55;26.58;;;;;;;15.98;49.08;102448.47;5015866;28;20026;-78
2023/04/18 04:01:25;;;;;;;28.70;26.77;;;;;;;15.95;49.03;102448.94;5015612;28;20030;-78
2023/04/18 04:03:50;;;;;;;29.88;27.67;;;;;;;15.93;48.98;102446.47;5016372;28;20469;-79
2023/04/18 04:06:16;;;;;;;30.38;28.17;;;;;;;15.91;48.80;102451.31;5015520;28;20033;-79
2023/04/18 04:08:44;;;;;;;29.80;27.75;;;;;;;15.89;49.01;102456.16;5015804;28;20421;-79
2023/04/18 04:11:10;;;;;;;27.67;25.90;;;;;;;15.88;48.91;102459.97;5015585;28;20061;-80
2023/04/18 04:13:35;;;;;;;28.42;26.40;;;;;;;15.84;48.76;102456.03;5015876;28;20045;-79
2023/04/18 04:16:01;;;;;;;31.10;28.98;;;;;;;15.83;49.05;102459.84;5015717;28;20056;-79
2023/04/18 04:18:29;;;;;;;29.30;27.23;;;;;;;15.81;48.56;102456.53;5015533;28;20030;-79
2023/04/18 04:20:56;;;;;;;28.50;26.50;;;;;;;15.80;48.76;102457.59;5016182;28;20034;-78
2023/04/18 04:23:24;;;;;;;28.77;26.48;;;;;;;15.77;48.52;102452.59;5015580;28;20037;-77
2023/04/18 04:25:51;;;;;;;30.05;27.98;;;;;;;15.75;48.58;102458.31;5016134;28;20042;-77
2023/04/18 04:28:18;;;;;;;28.63;26.35;;;;;;;15.73;48.66;102454.97;4998795;28;20042;-77
2023/04/18 04:30:43;;;;;;;29.48;27.48;;;;;;;15.71;48.71;102457.09;5015901;28;20040;-77
2023/04/18 04:33:08;;;;;;;29.25;27.13;;;;;;;15.69;48.52;102442.88;5015229;28;20120;-78
2023/04/18 04:35:35;;;;;;;27.25;25.58;;;;;;;15.66;48.83;102454.22;5015158;28;20088;-77
2023/04/18 04:38:01;;;;;;;29.13;27.10;;;;;;;15.64;48.61;102458.25;5015018;28;20121;-78
2023/04/18 04:40:26;;;;;;;25.73;24.02;;;;;;;15.61;48.48;102454.09;5015589;28;20030;-78
2023/04/18 04:42:54;;;;;;;30.30;28.23;;;;;;;15.57;48.39;102455.63;4996942;28;20042;-76
2023/04/18 04:45:21;;;;;;;25.83;24.13;;;;;;;15.55;48.60;102469.50;5015135;28;20026;-76
2023/04/18 04:47:46;;;;;;;23.95;22.63;;;;;;;15.55;48.59;102469.50;5015045;28;20036;-76
2023/04/18 04:50:14;;;;;;;29.20;26.95;;;;;;;15.54;48.68;102467.81;5015273;28;20033;-80
2023/04/18 04:52:41;;;;;;;26.85;25.00;;;;;;;15.53;48.73;102465.34;5014701;28;20092;-79
2023/04/18 04:55:06;;;;;;;27.63;25.52;;;;;;;15.49;48.68;102467.69;5014733;28;20045;-79
2023/04/18 04:57:32;;;;;;;25.73;24.25;;;;;;;15.48;48.66;102470.66;5015369;28;20034;-79
2023/04/18 04:59:57;;;;;;;28.25;26.17;;;;;;;15.46;48.29;102468.16;5015256;28;20029;-80
2023/04/18 05:02:22;;;;;;;28.65;26.38;;;;;;;15.44;48.50;102470.28;5015073;28;20030;-79
2023/04/18 05:04:48;;;;;;;27.80;26.00;;;;;;;15.42;48.55;102474.28;5015211;28;20025;-77
2023/04/18 05:07:14;;;;;;;28.27;26.45;;;;;;;15.41;48.66;102473.47;5014658;28;20359;-77
2023/04/18 05:09:39;;;;;;;26.50;24.45;;;;;;;15.40;48.21;102471.81;5014499;28;20064;-76
2023/04/18 05:12:05;;;;;;;27.90;25.58;;;;;;;15.37;48.81;102469.53;5014927;28;20368;-79
2023/04/18 05:14:30;;;;;;;24.17;22.58;;;;;;;15.34;48.31;102478.19;4997456;28;20030;-79
2023/04/18 05:16:56;;;;;;;27.38;25.35;;;;;;;15.32;48.45;102475.72;5014488;28;20119;-82
2023/04/18 05:19:22;;;;;;;25.27;23.77;;;;;;;15.31;48.53;102481.38;5014494;28;20060;-77
2023/04/18 05:21:47;;;;;;;26.38;24.65;;;;;;;15.29;48.28;102480.75;5015006;28;20099;-80
2023/04/18 05:24:13;;;;;;;24.52;22.92;;;;;;;15.28;48.24;102479.13;4996936;28;20120;-79
2023/04/18 05:26:39;;;;;;;30.17;28.00;;;;;;;15.26;48.67;102478.50;5014312;28;20109;-79
2023/04/18 05:29:04;;;;;;;26.73;24.98;;;;;;;15.25;48.24;102482.31;5014848;28;20487;-81
2023/04/18 05:31:30;;;;;;;29.13;27.08;;;;;;;15.24;48.17;102483.34;5014262;28;20029;-80
2023/04/18 05:33:55;;;;;;;26.05;24.30;;;;;;;15.20;48.43;102483.00;5014186;28;20501;-80
2023/04/18 05:36:21;;;;;;;24.42;23.02;;;;;;;15.20;48.18;102484.91;5013891;28;20110;-79
2023/04/18 05:38:46;;;;;;;26.88;24.98;;;;;;;15.17;48.44;102488.06;5013870;28;20029;-79
2023/04/18 05:41:12;;;;;;;28.05;25.95;;;;;;;15.15;48.38;102491.03;5014691;28;20126;-80
2023/04/18 05:43:37;;;;;;;29.25;26.73;;;;;;;15.12;48.42;102486.06;5014170;28;20117;-77
2023/04/18 05:46:03;;;;;;;27.27;25.40;;;;;;;15.11;48.20;102496.09;5013993;28;20038;-77
2023/04/18 05:48:28;;;;;;;28.42;25.60;;;;;;;15.09;48.42;102494.66;5014621;28;20038;-83
2023/04/18 05:50:54;;;;;;;23.15;21.95;;;;;;;15.07;48.02;102505.78;5013994;28;20037;-80
2023/04/18 05:53:20;;;;;;;27.83;25.73;;;;;;;15.07;48.13;102499.53;5013982;28;20092;-79
2023/04/18 05:55:47;;;;;;;26.67;24.77;;;;;;;15.04;48.11;102499.97;5014038;28;20049;-81
2023/04/18 05:58:13;;;;;;;29.27;26.65;;;;;;;15.04;47.94;102506.22;5015074;28;20038;-79
2023/04/18 06:00:38;;;;;;;27.40;25.42;;;;;;;15.04;48.07;102502.69;5013757;28;20096;-83
2023/04/18 06:03:03;;;;;;;28.10;26.05;;;;;;;15.02;47.83;102508.38;5013513;28;20091;-81
2023/04/18 06:05:29;;;;;;;23.95;22.60;;;;;;;15.00;47.93;102499.59;5014339;28;20034;-84
2023/04/18 06:07:54;;;;;;;25.35;23.45;;;;;;;15.00;48.32;102506.94;5014408;28;20112;-77
2023/04/18 06:10:20;;;;;;;25.42;23.63;;;;;;;14.99;48.17;102508.81;4995644;28;20520;-79
2023/04/18 06:12:45;;;;;;;24.83;23.27;;;;;;;14.96;48.42;102498.38;5013832;28;20037;-82
2023/04/18 06:15:11;;;;;;;27.38;25.27;;;;;;;14.94;47.94;102503.22;4996704;28;20401;-78
2023/04/18 06:17:36;;;;;;;27.08;25.15;;;;;;;14.95;47.86;102501.34;5013757;28;20034;-72
2023/04/18 06:20:03;;;;;;;28.10;26.00;;;;;;;14.91;48.02;102509.94;5013492;28;20022;-86
2023/04/18 06:22:28;;;;;;;26.75;24.70;;;;;;;14.90;47.88;102510.19;5014299;28;20072;-86
2023/04/18 06:24:54;;;;;;;27.25;24.50;;;;;;;14.90;47.90;102511.03;5014094;28;20061;-86
2023/04/18 06:27:20;;;;;;;25.83;23.80;;;;;;;14.88;47.89;102517.75;5013682;28;20022;-84
2023/04/18 06:29:45;;;;;;;26.77;24.77;;;;;;;14.86;47.85;102515.25;5016032;28;20030;-83
2023/04/18 06:32:11;;;;;;;27.45;25.60;;;;;;;14.85;48.12;102516.31;5018043;28;20037;-83
2023/04/18 06:34:37;;;;;;;25.05;23.38;;;;;;;14.83;48.29;102507.53;5017162;28;20033;-83
2023/04/18 06:37:02;;;;;;;25.42;23.80;;;;;;;14.82;48.14;102515.97;5014717;28;20032;-85
2023/04/18 06:39:28;;;;;;;25.40;23.35;;;;;;;14.79;48.04;102516.38;5017206;28;20488;-85
2023/04/18 06:41:53;;;;;;;27.27;25.27;;;;;;;14.80;48.19;102521.63;4999041;28;20022;-86
2023/04/18 06:44:18;;;;;;;27.58;25.67;;;;;;;14.79;48.10;102513.66;5013770;28;20466;-85
2023/04/18 06:46:45;;;;;;;24.33;22.63;;;;;;;14.79;47.88;102513.66;5013363;28;20038;-87
2023/04/18 06:49:10;;;;;;;27.38;25.35;;;;;;;14.77;48.08;102522.06;5013108;28;20069;-86
2023/04/18 06:51:35;;;;;;;26.08;24.33;;;;;;;14.76;48.00;102516.84;5013641;28;20061;-86
2023/04/18 06:54:01;;;;;;;25.65;23.80;;;;;;;14.76;48.01;102523.13;5013170;28;20030;-88
2023/04/18 06:56:27;;;;;;;25.80;24.02;;;;;;;14.73;48.37;102520.84;5013567;28;20370;-87
2023/04/18 06:58:52;;;;;;;22.77;21.48;;;;;;;14.73;48.24;102520.84;5013308;28;20190;-85
2023/04/18 07:01:18;;;;;;;26.27;24.42;;;;;;;14.71;48.24;102518.34;4995895;28;20034;-86
2023/04/18 07:03:43;;;;;;;24.40;22.88;;;;;;;14.70;48.11;102524.84;5013466;28;20530;-86
2023/04/18 07:06:09;;;;;;;25.13;23.33;;;;;;;14.70;48.72;102521.31;5015730;28;20026;-87
2023/04/18 07:08:35;;;;;;;24.80;23.02;;;;;;;14.69;48.28;102525.06;5017361;28;20034;-85
2023/04/18 07:11:00;;;;;;;27.65;25.55;;;;;;;14.68;48.31;102518.81;5017301;28;20389;-82
2023/04/18 07:13:26;;;;;;;24.45;22.73;;;;;;;14.68;48.27;102535.13;5016930;28;20057;-88
2023/04/18 07:15:51;;;;;;;25.42;23.73;;;;;;;14.68;48.53;102528.88;5017007;28;20038;-86
2023/04/18 07:18:17;;;;;;;26.02;24.05;;;;;;;14.68;48.06;102529.69;5017042;28;20038;-87
2023/04/18 07:20:42;;;;;;;24.30;22.73;;;;;;;14.68;48.24;102528.88;5016881;28;20037;-86
2023/04/18 07:23:09;;;;;;;26.08;24.23;;;;;;;14.67;48.56;102522.59;5016506;28;20425;-87
2023/04/18 07:25:35;;;;;;;24.45;22.77;;;;;;;14.68;48.49;102535.13;5019320;28;20034;-88
2023/04/18 07:28:00;;;;;;;25.00;23.08;;;;;;;14.68;48.18;102531.59;5017327;28;20088;-89
2023/04/18 07:30:26;;;;;;;25.27;23.48;;;;;;;14.68;48.48;102532.41;5017709;28;20026;-88
2023/04/18 07:32:51;;;;;;;23.10;21.75;;;;;;;14.67;48.53;102536.19;5018801;28;20455;-85
2023/04/18 07:35:17;;;;;;;24.67;23.15;;;;;;;14.67;48.35;102533.47;4999473;28;20056;-86
2023/04/18 07:37:43;;;;;;;25.45;23.25;;;;;;;14.68;48.28;102547.91;5000137;28;20122;-85
2023/04/18 07:40:09;;;;;;;25.13;23.25;;;;;;;14.66;48.44;102539.13;5016841;28;20034;-88
2023/04/18 07:42:34;;;;;;;25.73;24.00;;;;;;;14.67;48.38;102532.66;5016530;28;20446;-87
2023/04/18 07:45:00;;;;;;;23.25;22.02;;;;;;;14.66;48.38;102539.13;5016766;28;20041;-84
2023/04/18 07:47:27;;;;;;;24.00;22.50;;;;;;;14.65;48.23;102541.03;5016673;28;20141;-85
2023/04/18 07:49:52;;;;;;;26.25;24.65;;;;;;;14.65;48.39;102543.75;5016391;28;20109;-89
2023/04/18 07:52:18;;;;;;;26.35;24.25;;;;;;;14.65;48.40;102541.03;5016635;28;20026;-89
2023/04/18 07:54:43;;;;;;;27.58;25.48;;;;;;;14.66;48.33;102536.41;5017245;28;20049;-88
2023/04/18 07:57:09;;;;;;;26.95;25.05;;;;;;;14.65;48.55;102534.75;5016740;28;20347;-85
2023/04/18 07:59:35;;;;;;;24.20;22.80;;;;;;;14.65;48.37;102538.31;5016213;28;20033;-86
2023/04/18 08:02:00;;;;;;;23.85;22.25;;;;;;;14.64;48.47;102542.09;5016058;28;20053;-85
2023/04/18 08:04:26;;;;;;;25.20;23.48;;;;;;;14.65;48.64;102548.38;5016565;28;20112;-87
2023/04/18 08:06:51;;;;;;;26.65;24.52;;;;;;;14.63;48.77;102545.84;5016093;28;20059;-81
2023/04/18 08:09:19;;;;;;;23.85;22.15;;;;;;;14.65;48.27;102546.47;5016080;28;20080;-90
2023/04/18 08:11:45;;;;;;;20.55;19.35;;;;;;;14.64;48.51;102547.53;5016622;28;20484;-87
2023/04/18 08:14:10;;;;;;;25.98;23.52;;;;;;;14.66;48.30;102541.84;5016608;28;20060;-85
2023/04/18 08:16:36;;;;;;;22.10;20.70;;;;;;;14.67;48.33;102541.63;5014614;28;20032;-85
2023/04/18 08:19:02;;;;;;;23.13;21.55;;;;;;;14.68;48.47;102542.47;4998323;28;20370;-86
2023/04/18 08:21:27;;;;;;;23.40;21.77;;;;;;;14.68;48.55;102546.00;5015587;28;20084;-87
2023/04/18 08:23:52;;;;;;;23.58;21.98;;;;;;;14.71;48.45;102547.44;5015791;28;20034;-87
2023/04/18 08:26:18;;;;;;;24.25;22.55;;;;;;;14.72;48.51;102551.84;4997941;28;20030;-85
2023/04/18 08:28:44;;;;;;;23.17;21.50;;;;;;;14.74;48.44;102552.47;5015664;28;20034;-84
2023/04/18 08:31:15;;;;;;;22.75;21.17;;;;;;;14.76;48.47;102549.50;5015474;28;20073;-84
2023/04/18 08:33:40;;;;;;;24.90;23.17;;;;;;;14.78;48.73;102553.66;5016045;28;20060;-87
2023/04/18 08:36:06;;;;;;;24.98;23.25;;;;;;;14.79;48.42;102565.34;5015197;28;20116;-86
2023/04/18 08:38:32;;;;;;;25.98;24.17;;;;;;;14.80;48.48;102556.97;5015439;28;20026;-87
2023/04/18 08:40:57;;;;;;;23.15;21.75;;;;;;;14.82;48.60;102562.22;5015242;28;20034;-88
2023/04/18 08:43:24;;;;;;;24.10;22.58;;;;;;;14.82;48.61;102559.47;5015746;28;20030;-82
2023/04/18 08:45:57;;;;;;;26.20;24.23;;;;;;;14.85;48.51;102564.47;5015612;28;20100;-85
2023/04/18 08:48:22;;;;;;;24.65;23.05;;;;;;;14.84;48.37;102554.63;5015061;28;20465;-86
2023/04/18 08:50:48;;;;;;;25.70;23.90;;;;;;;14.86;48.69;102560.69;5014956;28;20026;-86
2023/04/18 08:53:13;;;;;;;25.10;23.50;;;;;;;14.83;48.49;102561.97;5014773;28;20030;-82
2023/04/18 08:55:39;;;;;;;25.77;24.10;;;;;;;14.86;48.73;102560.69;5014831;28;20381;-85
2023/04/18 08:58:05;;;;;;;27.42;25.42;;;;;;;14.88;48.56;102559.38;5015057;28;20034;-82
2023/04/18 09:00:31;;;;;;;26.45;24.02;;;;;;;14.90;48.54;102559.19;4997284;28;20076;-83
2023/04/18 09:02:57;;;;;;;24.92;23.23;;;;;;;14.92;48.65;102562.50;5014696;28;20113;-84
2023/04/18 09:05:25;;;;;;;27.88;25.83;;;;;;;14.94;48.59;102563.09;5015349;28;20044;-84
2023/04/18 09:07:52;;;;;;;25.67;23.70;;;;;;;14.95;48.74;102558.50;5014533;28;20042;-83
2023/04/18 09:10:29;;;;;;;25.30;23.67;;;;;;;14.94;48.49;102554.91;5014605;28;20053;-87
2023/04/18 09:12:57;;;;;;;28.30;25.95;;;;;;;14.95;48.60;102555.78;5014249;28;20105;-83
2023/04/18 09:15:26;;;;;;;26.13;24.35;;;;;;;14.96;48.69;102551.97;5015165;28;20034;-83
2023/04/18 09:17:52;;;;;;;;;;;;;;;14.95;48.49;102548.44;5014706;28;20038;-83
2023/04/18 09:20:39;;;;;;;24.35;22.45;;;;;;;14.92;48.64;102544.28;5014553;28;19913;-83
2023/04/18 09:23:09;;;;;;;26.40;24.25;;;;;;;14.95;48.84;102545.72;5014325;28;20032;-82
2023/04/18 09:25:41;;;;;;;22.33;21.02;;;;;;;14.99;48.47;102548.78;5014840;28;20026;-83
2023/04/18 09:28:27;;;;;;;24.35;22.75;;;;;;;14.99;48.55;102530.56;5014537;28;20068;-83
2023/04/18 09:30:57;;;;;;;25.65;23.65;;;;;;;15.03;48.53;102547.28;5014184;28;20022;-81
2023/04/18 09:33:27;;;;;;;26.70;24.58;;;;;;;15.05;48.32;102545.19;4997325;28;20249;-83
2023/04/18 09:35:53;;;;;;;27.40;25.40;;;;;;;15.07;48.42;102537.63;5014024;28;20026;-82
2023/04/18 09:38:19;;;;;;;25.42;23.65;;;;;;;15.09;48.62;102540.94;5013925;28;20040;-83
2023/04/18 09:40:44;;;;;;;23.73;21.92;;;;;;;15.12;48.65;102530.44;5012269;28;20026;-86
2023/04/18 09:43:19;;;;;;;25.08;23.25;;;;;;;15.13;48.58;102529.34;4996887;28;20038;-80
2023/04/18 09:45:48;;;;;;;24.75;22.95;;;;;;;15.17;48.49;102527.03;5014589;28;20026;-81
2023/04/18 09:48:14;;;;;;;23.95;22.35;;;;;;;15.20;48.40;102525.72;5014976;28;20037;-77
2023/04/18 09:50:40;;;;;;;25.42;23.83;;;;;;;15.22;48.56;102529.03;5015050;28;20037;-81
2023/04/18 09:53:07;;;;;;;25.38;23.65;;;;;;;15.22;48.51;102518.13;5014242;28;20355;-81
2023/04/18 09:55:33;;;;;;;25.70;24.00;;;;;;;15.23;48.58;102517.91;5013869;28;20033;-83
2023/04/18 09:58:02;;;;;;;26.40;24.35;;;;;;;15.27;48.51;102510.97;5013874;28;20042;-84
2023/04/18 10:00:29;;;;;;;;;;;;;;;15.26;48.71;102516.63;5014198;28;20034;-82
2023/04/18 10:03:03;;;;;;;23.42;22.00;;;;;;;15.27;48.72;102521.00;5013710;28;19910;-82
2023/04/18 10:05:33;;;;;;;22.67;21.35;;;;;;;15.29;49.05;102513.44;5014362;28;20118;-81
2023/04/18 10:07:59;;;;;;;24.73;23.23;;;;;;;15.32;48.73;102512.97;5013503;28;20060;-81
2023/04/18 10:10:25;;;;;;;25.30;23.52;;;;;;;15.36;48.77;102515.00;5013542;28;20465;-81
2023/04/18 10:12:55;;;;;;;24.75;23.00;;;;;;;15.39;49.15;102515.59;5014092;28;20030;-83
2023/04/18 10:15:26;;;;;;;27.40;25.23;;;;;;;15.43;48.94;102505.94;4996885;28;20160;-82
2023/04/18 10:17:59;;;;;;;24.58;23.15;;;;;;;15.44;48.79;102511.13;4995965;28;20034;-81
2023/04/18 10:20:28;;;;;;;25.52;23.83;;;;;;;15.46;48.98;102509.00;5013658;28;20138;-81
2023/04/18 10:22:55;;;;;;;26.15;24.20;;;;;;;15.51;48.72;102513.75;5013637;28;20034;-80
2023/04/18 10:25:38;;;;;;;28.23;25.95;;;;;;;15.52;48.45;102508.09;5013351;28;20040;-81
2023/04/18 10:28:09;;;;;;;26.45;24.60;;;;;;;15.55;48.49;102515.78;5013619;28;20116;-87
2023/04/18 10:30:41;;;;;;;26.38;24.73;;;;;;;15.57;48.71;102513.66;5013765;28;20070;-83
2023/04/18 10:33:26;;;;;;;26.17;24.33;;;;;;;15.57;48.86;102510.94;5013679;28;20073;-81
2023/04/18 10:36:15;;;;;;;27.02;25.17;;;;;;;15.59;48.42;102514.25;5013440;28;20034;-82
2023/04/18 10:38:54;;;;;;;26.98;25.10;;;;;;;15.62;48.61;102515.66;5014091;28;20026;-83
2023/04/18 10:41:30;;;;;;;25.30;23.55;;;;;;;15.65;48.55;102517.09;5016791;28;20216;-83
2023/04/18 10:44:05;;;;;;;25.55;23.95;;;;;;;15.65;48.65;102512.50;5016887;28;20033;-81
2023/04/18 10:46:31;;;;;;;27.48;25.55;;;;;;;15.68;48.79;102509.31;5017063;28;20462;-82
2023/04/18 10:49:19;;;;;;;26.10;24.40;;;;;;;15.69;48.79;102518.31;5017154;28;20084;-79
2023/04/18 10:51:46;;;;;;;25.77;23.97;;;;;;;15.71;49.03;102518.94;5016853;28;20374;-81
2023/04/18 10:54:41;;;;;;;25.88;24.08;;;;;;;15.71;48.92;102525.22;5017187;28;20544;-82
2023/04/18 10:57:07;;;;;;;24.67;23.17;;;;;;;15.75;48.87;102509.25;5008139;28;20099;-80
2023/04/18 10:59:37;;;;;;;26.95;24.92;;;;;;;15.76;48.62;102509.00;5016905;28;20038;-81
2023/04/18 11:02:18;;;;;;;25.17;23.55;;;;;;;15.78;48.66;102516.94;5016701;28;20033;-80
2023/04/18 11:04:50;;;;;;;25.98;24.38;;;;;;;15.81;48.41;102508.28;5017331;28;20034;-80
2023/04/18 11:07:16;;;;;;;24.60;23.20;;;;;;;15.84;48.79;102507.00;5017034;28;20042;-69